OSOK1: Oswego hwy 160

Data processed at Sun Sep 22 2019 23:55


All information presented herein is the property of the government of the United States of America and may be revised or deleted at any time without prior notice.
Dissemination of this information without the expressed written consent of the Public Affairs Office, Tulsa District U.S. Army Corps of Engineers is strictly prohibited.
These data are gathered electronically and, as presented, have not undergone any form of quality control. These data are not guaranteed to be valid or correct.
Go to home page.
Go to station list.
Go to home page.

Upstream stations:

Downstream station:
Previous Day
Next Day
Current Day
    
SHEF ID:       OSOK1     Oswego hwy 160
STATION TYPE:  

               PRECIP     STAGE  RIV-FLOW   VOLTAGE  BAT-LOAD
                   in        ft       cfs      volt      volt
              Ccp-Rev   Ccp-Rev   Ccp-Rev   Ccp-Rev   Ccp-Rev
(US/Central)
09/22 00:00      0.00     10.51      1801     12.41     12.41
09/22 01:00      0.00     10.80      2063     12.49     12.41
09/22 02:00      0.00     11.27      2486     12.49     12.41
09/22 03:00      0.00     11.80      2964     12.49     12.41
09/22 04:00      0.00     12.38      3486     12.41     12.41
09/22 05:00      0.00     12.86      3919     12.49     12.41
09/22 06:00      0.01     13.21      4234     12.41     12.41
09/22 07:00      0.03     13.40      4405     12.49     12.41
09/22 08:00      0.10     13.60      4586     12.49     12.41
09/22 09:00      0.63     13.81      4775     12.41     12.41
09/22 10:00      0.21     13.98      4928     12.41     12.41
09/22 11:00      0.28     14.20      5126     12.49     12.41
09/22 12:00      0.19     14.45      5481     12.49     12.41
09/22 13:00      0.01     14.68      5811     12.57     12.49
09/22 14:00      0.01     14.90      6126     12.65     12.49
09/22 15:00      0.00     15.20      6556     12.73     12.49
09/22 16:00      0.00     15.57      7086     12.65     12.57
09/22 17:00      0.00     16.13      7888     13.05     13.05
09/22 18:00      0.00     16.93      9034     12.81     12.73
09/22 19:00      0.01     17.97     10524     12.65     12.57
09/22 20:00      0.05     19.05     12070     12.65     12.49
09/22 21:00      0.23     20.17     13665     12.49     12.41
09/22 22:00      0.00     21.14     15047     12.57     12.41
09/22 23:00      0.00     22.05     16344     12.49     12.41